Time;durP1;ratioP1;P1;durP2;ratioP2;P2;SDS_P1;SDS_P2;PMS_P1;PMS_P2;Temp;Humidity;BMP_temperature;BMP_pressure;BME280_temperature;BME280_humidity;BME280_pressure;Samples;Min_cycle;Max_cycle;Signal;HPM_P1;HPM_P2
2022/05/25 00:00:08;;;;;;;4.30;3.40;;;12.00;91.50;;;;;;2047894;28;20044;-94
2022/05/25 00:01:28;;;;;;;4.70;3.35;;;12.00;91.50;;;;;;2056387;28;20038;-94
2022/05/25 00:02:47;;;;;;;4.80;3.30;;;12.00;91.50;;;;;;2047185;28;20047;-94
2022/05/25 00:04:07;;;;;;;4.60;3.80;;;12.00;91.50;;;;;;2055088;28;20035;-94
2022/05/25 00:05:26;;;;;;;4.78;3.58;;;12.00;91.50;;;;;;2049533;29;20084;-95
2022/05/25 00:06:46;;;;;;;5.38;3.95;;;12.00;91.80;;;;;;2061163;28;20055;-94
2022/05/25 00:08:09;;;;;;;4.88;3.83;;;12.00;91.60;;;;;;2064355;28;20062;-94
2022/05/25 00:09:29;;;;;;;3.88;3.17;;;11.90;91.60;;;;;;2061042;28;20107;-94
2022/05/25 00:10:48;;;;;;;4.72;3.63;;;11.90;91.60;;;;;;2054377;29;20027;-94
2022/05/25 00:12:09;;;;;;;4.65;3.60;;;11.90;91.70;;;;;;2066239;28;20078;-95
2022/05/25 00:13:29;;;;;;;4.30;3.47;;;11.80;91.70;;;;;;2061439;28;20027;-94
2022/05/25 00:14:49;;;;;;;4.38;3.50;;;11.80;91.80;;;;;;2054788;28;20466;-94
2022/05/25 00:16:08;;;;;;;5.93;3.97;;;11.80;91.80;;;;;;2052950;28;20039;-94
2022/05/25 00:17:28;;;;;;;4.70;3.88;;;11.80;91.80;;;;;;2054399;28;20075;-94
2022/05/25 00:20:26;;;;;;;5.13;3.70;;;11.80;91.90;;;;;;2064960;28;20035;-95
2022/05/25 00:21:46;;;;;;;5.72;4.28;;;11.90;91.80;;;;;;2064450;28;20035;-94
2022/05/25 00:23:05;;;;;;;5.70;4.05;;;11.80;91.80;;;;;;2055851;28;20043;-94
2022/05/25 00:24:25;;;;;;;5.10;3.63;;;11.80;91.80;;;;;;2051398;28;20039;-94
2022/05/25 00:25:45;;;;;;;4.63;3.90;;;11.80;91.80;;;;;;2054994;28;20039;-95
2022/05/25 00:27:05;;;;;;;6.55;4.10;;;11.80;91.90;;;;;;2062263;28;20042;-95
2022/05/25 00:28:25;;;;;;;5.40;3.72;;;11.80;91.90;;;;;;2061940;28;20038;-94
2022/05/25 00:29:45;;;;;;;4.72;3.72;;;11.80;91.90;;;;;;2050630;28;20043;-94
2022/05/25 00:31:04;;;;;;;4.95;3.78;;;11.80;91.90;;;;;;2054385;28;20055;-94
2022/05/25 00:32:23;;;;;;;5.28;4.15;;;11.80;91.90;;;;;;2074991;28;20037;-95
2022/05/25 00:33:43;;;;;;;4.88;4.03;;;11.80;91.90;;;;;;2071787;28;20129;-95
2022/05/25 00:35:03;;;;;;;6.38;4.32;;;11.80;91.90;;;;;;2059375;28;20031;-93
2022/05/25 00:36:22;;;;;;;5.22;3.90;;;11.70;91.80;;;;;;2052601;28;20043;-94
2022/05/25 00:37:43;;;;;;;5.40;4.10;;;11.70;91.90;;;;;;2042015;28;20043;-94
2022/05/25 00:39:02;;;;;;;4.93;3.90;;;11.70;91.90;;;;;;2063288;28;20038;-94
2022/05/25 00:40:28;;;;;;;5.63;4.63;;;11.70;91.90;;;;;;2058423;28;20047;-94
2022/05/25 00:41:49;;;;;;;5.30;4.07;;;11.70;92.00;;;;;;2054941;28;20031;-94
2022/05/25 00:43:09;;;;;;;5.20;4.20;;;11.70;92.00;;;;;;2046950;28;20032;-94
2022/05/25 00:44:29;;;;;;;5.20;4.03;;;11.70;92.00;;;;;;2053347;28;20043;-94
2022/05/25 00:45:51;;;;;;;5.05;3.97;;;11.70;92.00;;;;;;2057056;28;20511;-94
2022/05/25 00:47:11;;;;;;;4.68;3.85;;;11.60;92.00;;;;;;2061865;28;20038;-94
2022/05/25 00:48:43;;;;;;;4.82;3.85;;;11.60;92.00;;;;;;2067750;28;20043;-95
2022/05/25 00:50:03;;;;;;;4.55;3.78;;;11.60;92.00;;;;;;2065590;28;20026;-95
2022/05/25 00:51:35;;;;;;;5.35;4.10;;;11.60;92.00;;;;;;2060756;28;20051;-94
2022/05/25 00:52:55;;;;;;;4.43;3.50;;;11.60;92.00;;;;;;2065159;28;20051;-94
2022/05/25 00:54:20;;;;;;;5.47;4.00;;;11.60;92.00;;;;;;2068084;28;20042;-95
2022/05/25 00:55:40;;;;;;;5.13;4.07;;;11.60;92.10;;;;;;2057929;28;20039;-94
2022/05/25 00:57:05;;;;;;;5.60;4.00;;;11.60;92.10;;;;;;2058749;28;20035;-94
2022/05/25 00:58:25;;;;;;;5.80;3.95;;;11.60;92.10;;;;;;2067728;28;20046;-94
2022/05/25 01:00:08;;;;;;;4.78;3.70;;;11.60;92.10;;;;;;2064794;28;20046;-95
2022/05/25 01:01:29;;;;;;;5.60;4.30;;;11.60;92.10;;;;;;2062658;28;20082;-95
2022/05/25 01:03:04;;;;;;;5.28;3.83;;;11.60;92.10;;;;;;2061756;28;20039;-96
2022/05/25 01:04:25;;;;;;;5.15;3.90;;;11.60;92.10;;;;;;2071624;28;20046;-94
2022/05/25 01:05:58;;;;;;;;;;;11.50;92.10;;;;;;2062769;28;20094;-94
2022/05/25 01:07:36;;;;;;;4.43;3.30;;;11.50;92.10;;;;;;2056230;28;19966;-93
2022/05/25 01:09:07;;;;;;;4.45;3.30;;;11.50;92.10;;;;;;2058372;28;20039;-95
2022/05/25 01:10:47;;;;;;;4.63;3.55;;;11.50;92.10;;;;;;2062268;28;20094;-94
2022/05/25 01:12:21;;;;;;;4.80;3.65;;;11.60;92.10;;;;;;2056067;28;20031;-95
2022/05/25 01:13:54;;;;;;;4.80;3.85;;;11.60;92.10;;;;;;2055748;28;20042;-95
2022/05/25 01:15:36;;;;;;;5.68;3.70;;;11.60;92.10;;;;;;2062989;28;20014;-94
2022/05/25 01:17:14;;;;;;;5.25;3.75;;;11.60;92.10;;;;;;2065679;28;20034;-95
2022/05/25 01:18:49;;;;;;;5.13;3.65;;;11.60;92.10;;;;;;2072233;28;20034;-94
2022/05/25 01:20:28;;;;;;;4.88;3.72;;;11.60;92.10;;;;;;2071009;28;20046;-95
2022/05/25 01:22:13;;;;;;;5.53;3.85;;;11.50;92.10;;;;;;2069778;28;20034;-95
2022/05/25 01:24:10;;;;;;;4.97;3.70;;;11.50;92.10;;;;;;2080506;28;20034;-94
2022/05/25 01:25:47;;;;;;;5.32;3.83;;;11.50;92.10;;;;;;2067704;28;20034;-94
2022/05/25 01:27:23;;;;;;;4.93;3.70;;;11.50;92.10;;;;;;2061387;28;20035;-95
2022/05/25 01:29:11;;;;;;;4.53;3.67;;;11.50;92.40;;;;;;2061048;28;20023;-95
2022/05/25 01:30:39;;;;;;;5.55;3.90;;;11.50;92.10;;;;;;2053758;29;20031;-93
2022/05/25 01:32:19;;;;;;;5.35;4.00;;;11.50;92.20;;;;;;2063910;28;20117;-94
2022/05/25 01:33:51;;;;;;;4.75;3.60;;;11.40;92.10;;;;;;2071463;28;20098;-95
2022/05/25 01:35:29;;;;;;;5.60;3.38;;;11.50;92.20;;;;;;2065710;28;20110;-95
2022/05/25 01:37:09;;;;;;;5.57;3.90;;;11.50;92.20;;;;;;2070595;28;20031;-95
2022/05/25 01:38:40;;;;;;;5.00;3.28;;;11.50;92.20;;;;;;2058366;28;20030;-95
2022/05/25 01:40:14;;;;;;;4.78;3.53;;;11.50;92.20;;;;;;2065979;28;20042;-95
2022/05/25 01:41:44;;;;;;;5.15;3.53;;;11.50;92.20;;;;;;2061341;28;20018;-95
2022/05/25 01:43:16;;;;;;;4.45;3.35;;;11.50;92.20;;;;;;2063286;28;20038;-95
2022/05/25 01:44:44;;;;;;;4.95;3.30;;;11.50;92.20;;;;;;2059910;28;20492;-95
2022/05/25 01:46:25;;;;;;;4.82;3.65;;;11.50;92.20;;;;;;2058747;28;20047;-94
2022/05/25 01:47:48;;;;;;;4.40;3.20;;;11.50;92.20;;;;;;2061078;28;20055;-96
2022/05/25 01:49:11;;;;;;;4.43;3.25;;;11.50;92.30;;;;;;2064703;28;20019;-95
2022/05/25 01:50:42;;;;;;;5.07;3.83;;;11.50;92.30;;;;;;2063195;28;20038;-95
2022/05/25 01:52:05;;;;;;;4.68;3.50;;;11.40;92.30;;;;;;2069096;28;20039;-95
2022/05/25 01:53:41;;;;;;;5.07;3.65;;;11.40;92.30;;;;;;2062995;28;20046;-94
2022/05/25 01:55:07;;;;;;;6.00;3.90;;;11.40;92.30;;;;;;2068047;28;20450;-95
2022/05/25 01:56:31;;;;;;;4.90;3.67;;;11.40;92.30;;;;;;2064029;28;20499;-95
2022/05/25 01:57:56;;;;;;;5.18;3.97;;;11.40;92.30;;;;;;2060026;28;20039;-95
2022/05/25 01:59:17;;;;;;;4.53;3.28;;;11.40;92.30;;;;;;2058534;28;20046;-95
2022/05/25 02:00:41;;;;;;;4.93;3.85;;;11.40;92.30;;;;;;2062825;28;20034;-95
2022/05/25 02:05:23;;;;;;;5.47;3.47;;;11.30;92.30;;;;;;2075716;28;20487;-95
2022/05/25 02:07:18;;;;;;;5.38;4.10;;;11.30;92.30;;;;;;2054657;28;20111;-96
2022/05/25 02:08:51;;;;;;;5.03;3.60;;;11.30;92.30;;;;;;2053034;28;20482;-96
2022/05/25 02:10:36;;;;;;;5.93;4.00;;;11.30;92.30;;;;;;2068832;28;20027;-96
2022/05/25 02:12:42;;;;;;;4.95;3.47;;;11.30;92.30;;;;;;2066584;28;20121;-95
2022/05/25 02:14:23;;;;;;;4.40;3.40;;;11.30;92.30;;;;;;2035780;29;20044;-95
2022/05/25 02:16:13;;;;;;;4.60;3.38;;;11.30;92.30;;;;;;2055413;28;20062;-95
2022/05/25 02:18:15;;;;;;;4.65;3.55;;;11.20;92.20;;;;;;2060822;28;20051;-95
2022/05/25 02:20:02;;;;;;;4.38;3.40;;;11.20;92.20;;;;;;2038122;28;20036;-96
2022/05/25 02:21:49;;;;;;;4.35;3.50;;;11.20;92.20;;;;;;2063049;28;20038;-94
2022/05/25 02:23:47;;;;;;;4.10;3.22;;;11.20;92.20;;;;;;2058963;28;20019;-95
2022/05/25 02:25:14;;;;;;;4.50;3.33;;;11.20;92.20;;;;;;2062564;28;20118;-95
2022/05/25 02:26:42;;;;;;;4.78;3.60;;;11.20;92.20;;;;;;2064473;28;20046;-95
2022/05/25 02:28:15;;;;;;;4.93;3.78;;;11.20;92.30;;;;;;2058415;28;20073;-95
2022/05/25 02:29:38;;;;;;;5.25;3.92;;;11.20;92.30;;;;;;2058128;28;20051;-95
2022/05/25 02:31:01;;;;;;;4.95;3.78;;;11.10;92.30;;;;;;2067223;28;20022;-95
2022/05/25 02:32:26;;;;;;;5.55;3.65;;;11.10;92.30;;;;;;2058261;28;20046;-95
2022/05/25 02:33:54;;;;;;;4.85;3.80;;;11.10;92.30;;;;;;2054170;28;20043;-95
2022/05/25 02:35:15;;;;;;;4.90;3.75;;;11.10;92.30;;;;;;2066736;28;20089;-95
2022/05/25 02:36:37;;;;;;;5.70;4.20;;;11.10;92.30;;;;;;2058107;28;20231;-95
2022/05/25 02:38:02;;;;;;;5.22;4.10;;;11.10;92.30;;;;;;2061306;28;20041;-94
2022/05/25 02:39:22;;;;;;;6.30;3.85;;;11.10;92.30;;;;;;2056226;28;20039;-95
2022/05/25 02:40:41;;;;;;;5.72;4.25;;;11.10;92.30;;;;;;2046554;29;20055;-96
2022/05/25 02:42:01;;;;;;;5.88;4.32;;;11.10;92.40;;;;;;2062574;28;20061;-95
2022/05/25 02:43:20;;;;;;;6.53;4.18;;;11.10;92.40;;;;;;2047200;29;20482;-95
2022/05/25 02:44:40;;;;;;;6.05;4.25;;;11.10;92.40;;;;;;2051471;28;20050;-96
2022/05/25 02:45:59;;;;;;;5.15;3.92;;;11.10;92.40;;;;;;2058671;28;20051;-96
2022/05/25 02:47:19;;;;;;;5.18;3.85;;;11.10;92.40;;;;;;2063397;28;20026;-95
2022/05/25 02:48:38;;;;;;;5.50;4.28;;;11.10;92.40;;;;;;2059994;28;20071;-95
2022/05/25 02:49:57;;;;;;;6.05;3.85;;;11.10;92.50;;;;;;2055143;28;20039;-96
2022/05/25 02:51:17;;;;;;;5.97;4.10;;;11.10;92.50;;;;;;2057514;28;20034;-95
2022/05/25 02:52:37;;;;;;;5.63;4.13;;;11.10;92.50;;;;;;2059111;28;20039;-95
2022/05/25 02:53:56;;;;;;;6.88;4.47;;;11.10;92.50;;;;;;2052673;28;20039;-96
2022/05/25 02:55:17;;;;;;;5.53;4.13;;;11.10;92.50;;;;;;2061066;28;20043;-94
2022/05/25 02:56:37;;;;;;;6.20;4.43;;;11.10;92.50;;;;;;2064942;28;20566;-95
2022/05/25 02:58:00;;;;;;;5.32;4.20;;;11.10;92.50;;;;;;2069558;28;20042;-95
2022/05/25 02:59:19;;;;;;;5.65;4.00;;;11.10;92.50;;;;;;2047977;28;20044;-95
2022/05/25 03:00:39;;;;;;;5.50;4.03;;;11.10;92.50;;;;;;2052097;28;20027;-95
2022/05/25 03:02:01;;;;;;;5.15;3.75;;;11.10;92.50;;;;;;2064243;28;20042;-95
2022/05/25 03:03:21;;;;;;;5.82;3.83;;;11.10;92.60;;;;;;2061305;28;20031;-95
2022/05/25 03:04:41;;;;;;;5.88;4.35;;;11.10;92.60;;;;;;2062197;28;20046;-96
2022/05/25 03:06:00;;;;;;;5.97;3.55;;;11.10;92.60;;;;;;2056074;28;20039;-95
2022/05/25 03:07:20;;;;;;;5.50;4.07;;;11.00;92.60;;;;;;2059138;28;20407;-96
2022/05/25 03:08:41;;;;;;;6.10;4.45;;;11.10;92.60;;;;;;2061818;28;20077;-96
2022/05/25 03:10:00;;;;;;;5.25;3.83;;;11.00;92.60;;;;;;2069387;28;20046;-96
2022/05/25 03:11:20;;;;;;;6.13;4.20;;;11.10;92.60;;;;;;2055682;28;20039;-96
2022/05/25 03:12:39;;;;;;;5.70;3.70;;;11.00;92.60;;;;;;2061662;28;20050;-95
2022/05/25 03:13:58;;;;;;;6.50;4.32;;;11.00;92.60;;;;;;2055505;28;20039;-96
2022/05/25 03:15:20;;;;;;;5.85;4.15;;;11.00;92.70;;;;;;2058630;28;20415;-95
2022/05/25 03:16:40;;;;;;;5.07;3.90;;;11.00;92.70;;;;;;2061866;28;20121;-94
2022/05/25 03:17:59;;;;;;;5.47;3.97;;;11.00;92.70;;;;;;2064982;28;20483;-96
2022/05/25 03:19:19;;;;;;;6.13;4.20;;;11.00;92.70;;;;;;2057340;28;20566;-94
2022/05/25 03:20:39;;;;;;;5.43;3.97;;;11.00;92.70;;;;;;2064990;28;20035;-95
2022/05/25 03:21:58;;;;;;;5.78;4.38;;;11.00;92.70;;;;;;2051987;28;20043;-94
2022/05/25 03:23:18;;;;;;;5.80;4.00;;;11.00;92.70;;;;;;2048229;29;20043;-94
2022/05/25 03:24:37;;;;;;;5.47;3.83;;;11.00;92.70;;;;;;2055679;28;20039;-94
2022/05/25 03:25:57;;;;;;;5.80;4.10;;;11.00;92.70;;;;;;2040031;28;20102;-96
2022/05/25 03:27:16;;;;;;;6.22;4.47;;;11.00;92.70;;;;;;2051842;29;20047;-95
2022/05/25 03:28:36;;;;;;;5.35;3.95;;;11.00;92.70;;;;;;2056772;28;20043;-95
2022/05/25 03:29:56;;;;;;;5.93;4.10;;;11.00;92.70;;;;;;2062548;28;20034;-95
2022/05/25 03:31:16;;;;;;;5.20;3.75;;;11.00;92.70;;;;;;2052461;28;20070;-95
2022/05/25 03:32:35;;;;;;;5.47;3.90;;;11.00;92.70;;;;;;2050824;28;20102;-94
2022/05/25 03:33:54;;;;;;;6.60;4.63;;;11.00;92.70;;;;;;2060630;28;20034;-94
2022/05/25 03:35:14;;;;;;;5.68;4.15;;;10.90;92.70;;;;;;2053834;28;20039;-95
2022/05/25 03:36:34;;;;;;;5.97;4.18;;;11.00;92.70;;;;;;2060483;28;20039;-94
2022/05/25 03:37:53;;;;;;;4.93;3.90;;;10.90;92.70;;;;;;2059614;28;20105;-95
2022/05/25 03:39:12;;;;;;;5.55;4.20;;;10.90;92.70;;;;;;2051149;28;20043;-96
2022/05/25 03:40:32;;;;;;;6.60;4.32;;;10.90;92.70;;;;;;2063338;28;20090;-95
2022/05/25 03:41:55;;;;;;;5.47;4.28;;;10.90;92.70;;;;;;2064760;28;20070;-95
2022/05/25 03:43:17;;;;;;;5.15;3.60;;;10.90;92.80;;;;;;2061560;28;20066;-94
2022/05/25 03:44:37;;;;;;;6.63;3.92;;;10.90;92.80;;;;;;2067475;28;20050;-95
2022/05/25 03:45:57;;;;;;;6.10;4.32;;;10.90;92.70;;;;;;2052183;28;20082;-95
2022/05/25 03:47:17;;;;;;;6.55;4.03;;;10.90;92.70;;;;;;2055835;28;20047;-95
2022/05/25 03:48:36;;;;;;;5.40;3.97;;;10.90;92.80;;;;;;2064197;28;20034;-95
2022/05/25 03:49:55;;;;;;;6.10;4.13;;;11.00;92.80;;;;;;2065741;28;20038;-94
2022/05/25 03:51:14;;;;;;;6.07;3.70;;;10.90;92.80;;;;;;2053012;28;20039;-95
2022/05/25 03:52:34;;;;;;;5.13;3.65;;;10.90;92.80;;;;;;2062233;28;20030;-95
2022/05/25 03:53:53;;;;;;;5.50;3.88;;;10.90;92.80;;;;;;2064748;28;20038;-94
2022/05/25 03:55:12;;;;;;;6.13;3.95;;;10.90;92.80;;;;;;2059095;28;20050;-95
2022/05/25 03:56:32;;;;;;;6.78;4.10;;;10.90;92.80;;;;;;2057215;28;20031;-96
2022/05/25 03:57:52;;;;;;;5.88;3.67;;;10.90;92.80;;;;;;2053259;28;20122;-95
2022/05/25 03:59:12;;;;;;;5.40;4.00;;;10.90;92.70;;;;;;2038916;29;20040;-95
2022/05/25 04:00:33;;;;;;;5.15;3.60;;;10.90;92.70;;;;;;2056687;28;20129;-95
2022/05/25 04:01:52;;;;;;;5.13;3.80;;;11.00;92.80;;;;;;2060580;28;20070;-95
2022/05/25 04:03:15;;;;;;;5.00;3.40;;;10.90;92.70;;;;;;2044338;29;20035;-94
2022/05/25 04:04:35;;;;;;;5.28;3.58;;;11.00;92.70;;;;;;2059145;28;20041;-96
2022/05/25 04:05:54;;;;;;;4.90;3.65;;;11.00;92.70;;;;;;2054946;28;20043;-94
2022/05/25 04:07:14;;;;;;;5.38;3.67;;;11.00;92.70;;;;;;2059447;28;20038;-95
2022/05/25 04:08:33;;;;;;;5.20;3.58;;;11.00;92.70;;;;;;2052727;28;20504;-94
2022/05/25 04:09:53;;;;;;;5.32;3.35;;;11.00;92.70;;;;;;2058255;28;20038;-96
2022/05/25 04:11:12;;;;;;;6.75;3.83;;;11.00;92.70;;;;;;2066061;28;20051;-95
2022/05/25 04:12:32;;;;;;;4.63;3.45;;;11.00;92.70;;;;;;2056202;29;20043;-94
2022/05/25 04:13:52;;;;;;;5.25;3.75;;;11.00;92.60;;;;;;2062453;28;20023;-95
2022/05/25 04:15:15;;;;;;;5.95;3.55;;;11.00;92.60;;;;;;2072138;28;20030;-96
2022/05/25 04:16:35;;;;;;;5.75;3.60;;;11.00;92.60;;;;;;2064558;28;20031;-94
2022/05/25 04:17:55;;;;;;;5.25;3.47;;;11.00;92.60;;;;;;2072596;28;20062;-93
2022/05/25 04:19:15;;;;;;;5.03;3.03;;;11.10;92.60;;;;;;2057302;28;20087;-94
2022/05/25 04:20:34;;;;;;;5.38;3.42;;;11.10;92.60;;;;;;2058222;28;20031;-94
2022/05/25 04:21:54;;;;;;;5.18;3.47;;;11.10;92.60;;;;;;2049345;28;20027;-95
2022/05/25 04:23:14;;;;;;;6.15;3.53;;;11.10;92.60;;;;;;2064807;28;20034;-95
2022/05/25 04:24:33;;;;;;;5.75;3.90;;;11.10;92.60;;;;;;2051480;28;20059;-94
2022/05/25 04:25:53;;;;;;;6.47;3.70;;;11.10;92.60;;;;;;2042830;28;20048;-95
2022/05/25 04:27:12;;;;;;;5.00;3.75;;;11.10;92.60;;;;;;2047969;28;20134;-94
2022/05/25 04:28:32;;;;;;;5.05;3.47;;;11.10;92.60;;;;;;2064555;28;20054;-95
2022/05/25 04:29:51;;;;;;;5.03;3.72;;;11.20;92.60;;;;;;2056502;28;20035;-94
2022/05/25 04:31:11;;;;;;;5.10;3.42;;;11.20;92.60;;;;;;2055891;28;20043;-94
2022/05/25 04:32:30;;;;;;;5.10;3.55;;;11.20;92.60;;;;;;2058893;28;20042;-94
2022/05/25 04:33:49;;;;;;;6.18;3.85;;;11.20;92.50;;;;;;2054841;28;20043;-94
2022/05/25 04:35:11;;;;;;;5.90;3.40;;;11.20;92.50;;;;;;2051002;28;20043;-93
2022/05/25 04:36:30;;;;;;;5.32;3.60;;;11.20;92.50;;;;;;2050901;28;20043;-94
2022/05/25 04:37:52;;;;;;;5.32;3.83;;;11.20;92.50;;;;;;2047870;28;20071;-94
2022/05/25 04:39:11;;;;;;;5.43;3.90;;;11.20;92.50;;;;;;2055720;28;20491;-94
2022/05/25 04:40:32;;;;;;;6.78;4.00;;;11.20;92.50;;;;;;2056170;28;20046;-93
2022/05/25 04:41:51;;;;;;;;;;;11.30;92.60;;;;;;2058552;28;20043;-94
2022/05/25 04:43:16;;;;;;;5.03;3.63;;;11.30;92.50;;;;;;2063455;28;19910;-93
2022/05/25 04:44:35;;;;;;;4.38;3.28;;;11.30;92.50;;;;;;2053699;28;20039;-94
2022/05/25 04:45:55;;;;;;;5.60;3.70;;;11.30;92.50;;;;;;2056615;28;20092;-93
2022/05/25 04:47:15;;;;;;;5.07;3.58;;;11.30;92.50;;;;;;2058441;28;20096;-94
2022/05/25 04:48:35;;;;;;;5.20;3.75;;;11.30;92.50;;;;;;2064017;28;20045;-93
2022/05/25 04:49:54;;;;;;;5.75;4.00;;;11.30;92.50;;;;;;2055654;28;20047;-95
2022/05/25 04:51:14;;;;;;;5.25;3.88;;;11.40;92.50;;;;;;2065008;28;20045;-95
2022/05/25 04:52:35;;;;;;;6.18;4.00;;;11.40;92.50;;;;;;2043132;28;20032;-93
2022/05/25 04:53:55;;;;;;;5.65;3.92;;;11.40;92.50;;;;;;2043303;28;20134;-94
2022/05/25 04:58:41;;;;;;;6.50;4.13;;;11.50;92.50;;;;;;2058827;28;20039;-95
2022/05/25 05:00:04;;;;;;;6.10;4.20;;;11.50;92.40;;;;;;2050649;28;20583;-94
2022/05/25 05:01:23;;;;;;;7.15;4.60;;;11.60;92.40;;;;;;2054387;28;20062;-94
2022/05/25 05:02:43;;;;;;;5.93;4.38;;;11.60;92.40;;;;;;2043319;28;21177;-94
2022/05/25 05:04:02;;;;;;;6.05;4.22;;;11.70;92.40;;;;;;2037870;29;20106;-93
2022/05/25 05:05:22;;;;;;;6.05;4.30;;;11.70;92.30;;;;;;2041762;29;20055;-93
2022/05/25 05:06:44;;;;;;;5.30;3.90;;;11.80;92.60;;;;;;2048927;28;20053;-93
2022/05/25 05:08:04;;;;;;;5.65;4.05;;;11.90;92.30;;;;;;2054507;28;20035;-93
2022/05/25 05:09:24;;;;;;;7.28;4.35;;;12.00;92.20;;;;;;2056022;28;20043;-93
2022/05/25 05:10:43;;;;;;;5.20;3.90;;;12.10;92.10;;;;;;2045799;28;20054;-93
2022/05/25 05:12:02;;;;;;;6.00;4.15;;;12.20;92.10;;;;;;2047938;28;20051;-93
2022/05/25 05:13:23;;;;;;;5.68;4.20;;;12.30;92.00;;;;;;2054879;28;20027;-93
2022/05/25 05:14:44;;;;;;;6.60;4.30;;;12.40;91.80;;;;;;2039533;28;20115;-92
2022/05/25 05:16:06;;;;;;;5.90;4.15;;;12.50;91.70;;;;;;2047959;28;20282;-93
2022/05/25 05:17:25;;;;;;;6.38;4.40;;;12.60;91.70;;;;;;2048057;29;20047;-94
2022/05/25 05:18:44;;;;;;;6.20;4.07;;;12.70;91.60;;;;;;2047419;28;20039;-94
2022/05/25 05:20:05;;;;;;;5.97;3.97;;;12.70;91.50;;;;;;2053054;28;20039;-93
2022/05/25 05:21:25;;;;;;;6.30;4.65;;;12.80;91.40;;;;;;2048616;29;20027;-94
2022/05/25 05:22:44;;;;;;;6.50;4.22;;;12.90;91.40;;;;;;2054811;28;20499;-94
2022/05/25 05:24:04;;;;;;;5.30;3.78;;;12.90;91.30;;;;;;2051331;29;20047;-94
2022/05/25 05:25:24;;;;;;;6.60;4.28;;;13.00;91.20;;;;;;2047504;29;20039;-94
2022/05/25 05:26:43;;;;;;;5.68;4.18;;;13.10;91.20;;;;;;2050876;28;20110;-96
2022/05/25 05:28:11;;;;;;;5.97;4.10;;;13.20;91.10;;;;;;2052563;28;20076;-94
2022/05/25 05:29:32;;;;;;;6.00;3.83;;;13.20;91.00;;;;;;2049291;28;20126;-94
2022/05/25 05:30:52;;;;;;;;;;;13.30;91.00;;;;;;2047724;29;20575;-94
2022/05/25 05:32:12;;;;;;;6.00;3.55;;;13.30;90.90;;;;;;2048091;29;20290;-94
2022/05/25 05:33:32;;;;;;;5.28;3.55;;;13.30;90.90;;;;;;2039837;29;20024;-94
2022/05/25 05:34:52;;;;;;;5.47;3.30;;;13.30;91.10;;;;;;2051293;28;20460;-94
2022/05/25 05:36:26;;;;;;;5.32;3.35;;;13.40;90.80;;;;;;2042876;29;20513;-93
2022/05/25 05:37:51;;;;;;;6.40;3.80;;;13.40;90.80;;;;;;2048720;29;20047;-93
2022/05/25 05:39:13;;;;;;;5.38;3.83;;;13.40;90.70;;;;;;2048542;29;20032;-94
2022/05/25 05:40:33;;;;;;;5.25;3.58;;;13.40;90.70;;;;;;2054614;28;20035;-95
2022/05/25 05:41:59;;;;;;;5.15;3.50;;;13.50;90.70;;;;;;2057886;28;20034;-95
2022/05/25 05:43:18;;;;;;;4.72;3.38;;;13.50;90.70;;;;;;2052062;28;20804;-95
2022/05/25 05:44:48;;;;;;;5.55;3.25;;;13.50;90.70;;;;;;2062624;28;20046;-93
2022/05/25 05:46:09;;;;;;;5.05;3.40;;;13.60;90.70;;;;;;2053451;28;20039;-93
2022/05/25 05:47:43;;;;;;;5.32;3.55;;;13.60;90.60;;;;;;2055990;28;20038;-95
2022/05/25 05:49:05;;;;;;;5.80;3.50;;;13.60;90.50;;;;;;2057100;28;20039;-94
2022/05/25 05:50:25;;;;;;;6.40;3.53;;;13.60;90.50;;;;;;2051947;28;20050;-95
2022/05/25 05:51:44;;;;;;;5.88;3.67;;;13.60;90.50;;;;;;2057610;28;20391;-94
2022/05/25 05:53:05;;;;;;;5.43;3.25;;;13.60;90.50;;;;;;2054452;28;20074;-94
2022/05/25 05:54:25;;;;;;;4.43;3.05;;;13.70;90.50;;;;;;2060395;28;20042;-95
2022/05/25 05:55:46;;;;;;;5.25;3.08;;;13.70;90.50;;;;;;2044560;29;20508;-94
2022/05/25 05:57:06;;;;;;;5.45;3.13;;;13.80;90.40;;;;;;2045708;29;20039;-92
2022/05/25 05:58:26;;;;;;;4.50;3.03;;;13.80;90.30;;;;;;2058435;28;20159;-94
2022/05/25 05:59:45;;;;;;;4.63;3.03;;;14.00;90.30;;;;;;2049674;28;20051;-94
2022/05/25 06:01:04;;;;;;;4.18;2.83;;;13.90;90.20;;;;;;2050204;29;20071;-95
2022/05/25 06:02:23;;;;;;;4.32;2.95;;;14.00;90.20;;;;;;2059012;28;20113;-93
2022/05/25 06:03:43;;;;;;;4.65;2.88;;;14.00;90.20;;;;;;2049517;28;20066;-94
2022/05/25 06:05:02;;;;;;;5.25;3.00;;;14.00;90.20;;;;;;2049931;28;20043;-95
2022/05/25 06:06:23;;;;;;;4.53;2.95;;;14.10;90.10;;;;;;2045465;29;20051;-96
2022/05/25 06:07:43;;;;;;;4.75;3.08;;;14.20;90.10;;;;;;2055360;28;20019;-93
2022/05/25 06:09:02;;;;;;;4.88;3.20;;;14.20;90.00;;;;;;2060570;28;20054;-94
2022/05/25 06:10:22;;;;;;;5.72;3.03;;;14.30;89.90;;;;;;2046283;28;20024;-94
2022/05/25 06:11:42;;;;;;;5.07;2.90;;;14.30;89.80;;;;;;2051686;28;20040;-93
2022/05/25 06:13:03;;;;;;;5.25;2.90;;;14.40;89.70;;;;;;2057515;28;20255;-95
2022/05/25 06:14:22;;;;;;;4.72;2.95;;;14.50;89.70;;;;;;2065604;28;20042;-95
2022/05/25 06:20:48;;;;;;;4.63;3.03;;;14.70;89.20;;;;;;2056782;28;20039;-95
2022/05/25 06:22:12;;;;;;;6.00;3.10;;;14.70;89.10;;;;;;2060558;28;20042;-95
2022/05/25 06:23:32;;;;;;;7.00;2.65;;;14.80;89.00;;;;;;2048774;29;20019;-95
2022/05/25 06:24:52;;;;;;;4.47;2.55;;;14.80;88.90;;;;;;2049160;29;20023;-93
2022/05/25 06:26:14;;;;;;;5.05;2.95;;;14.80;88.80;;;;;;2056076;28;20027;-94
2022/05/25 06:27:34;;;;;;;6.15;3.13;;;14.90;88.90;;;;;;2049653;29;20067;-94
2022/05/25 06:28:53;;;;;;;4.47;2.90;;;14.80;88.80;;;;;;2039053;29;20051;-95
2022/05/25 06:30:16;;;;;;;5.22;3.30;;;14.80;88.80;;;;;;2039049;29;20043;-95
2022/05/25 06:31:35;;;;;;;7.15;3.47;;;14.80;88.80;;;;;;2044468;28;20040;-95
2022/05/25 06:32:54;;;;;;;6.82;3.10;;;14.80;88.80;;;;;;2045831;29;20043;-94
2022/05/25 06:34:14;;;;;;;5.10;2.97;;;14.70;88.80;;;;;;2050334;28;20043;-94
2022/05/25 06:35:34;;;;;;;7.82;3.10;;;14.80;88.90;;;;;;2056691;28;20031;-96
2022/05/25 06:36:53;;;;;;;4.57;2.92;;;14.90;89.00;;;;;;2043871;29;20036;-94
2022/05/25 06:38:13;;;;;;;5.90;2.95;;;14.90;88.80;;;;;;2058042;28;20035;-94
2022/05/25 06:39:37;;;;;;;5.60;2.83;;;14.90;88.60;;;;;;2049061;29;20044;-94
2022/05/25 06:40:56;;;;;;;4.22;2.88;;;14.90;88.50;;;;;;2046756;28;20119;-95
2022/05/25 06:42:15;;;;;;;6.25;3.40;;;14.90;88.50;;;;;;2053211;28;20050;-95
2022/05/25 06:43:34;;;;;;;6.53;3.13;;;14.90;88.40;;;;;;2053217;29;20047;-94
2022/05/25 06:44:54;;;;;;;6.38;3.50;;;14.90;88.40;;;;;;2054655;28;20047;-95
2022/05/25 06:46:16;;;;;;;5.03;3.42;;;14.90;88.40;;;;;;2050427;29;20047;-95
2022/05/25 06:47:37;;;;;;;5.07;3.20;;;14.90;88.30;;;;;;2055701;28;20109;-95
2022/05/25 06:49:00;;;;;;;4.68;3.22;;;14.80;88.30;;;;;;2049918;29;20039;-95
2022/05/25 06:50:19;;;;;;;5.35;2.85;;;14.90;88.40;;;;;;2060914;28;20054;-94
2022/05/25 06:51:39;;;;;;;4.45;2.70;;;14.90;88.60;;;;;;2053249;29;20071;-95
2022/05/25 06:52:58;;;;;;;4.55;3.00;;;14.90;88.50;;;;;;2053098;28;20042;-95
2022/05/25 06:54:18;;;;;;;5.22;3.13;;;15.00;88.40;;;;;;2056768;28;20047;-95
2022/05/25 06:55:38;;;;;;;5.95;3.47;;;15.00;88.10;;;;;;2053867;29;20091;-94
2022/05/25 06:56:57;;;;;;;7.97;3.60;;;15.00;88.10;;;;;;2059159;28;20039;-95
2022/05/25 06:58:16;;;;;;;5.40;2.90;;;15.00;88.00;;;;;;2061440;28;20034;-95
2022/05/25 06:59:36;;;;;;;4.97;3.15;;;15.00;88.00;;;;;;2067135;28;20038;-95
2022/05/25 07:00:55;;;;;;;5.60;2.80;;;15.10;88.00;;;;;;2056606;28;20574;-94
2022/05/25 07:02:15;;;;;;;5.20;2.85;;;15.10;87.90;;;;;;2041680;29;20040;-95
2022/05/25 07:03:34;;;;;;;4.80;2.55;;;15.20;87.80;;;;;;2037363;29;20051;-94
2022/05/25 07:04:54;;;;;;;6.78;3.22;;;15.30;87.60;;;;;;2051749;28;20459;-94
2022/05/25 07:06:15;;;;;;;6.30;3.28;;;15.30;87.30;;;;;;2040928;29;20056;-94
2022/05/25 07:07:34;;;;;;;5.70;3.38;;;15.40;87.30;;;;;;2068639;28;20042;-96
2022/05/25 07:08:54;;;;;;;4.60;2.70;;;15.40;87.10;;;;;;2059330;28;20076;-94
2022/05/25 07:10:13;;;;;;;4.78;3.03;;;15.40;87.20;;;;;;2056639;28;20043;-93
2022/05/25 07:11:33;;;;;;;5.45;2.88;;;15.30;87.20;;;;;;2054163;28;20070;-94
2022/05/25 07:12:53;;;;;;;5.65;2.90;;;15.30;87.20;;;;;;2043518;29;20040;-94
2022/05/25 07:14:14;;;;;;;4.75;2.65;;;15.30;87.30;;;;;;2035044;29;20047;-94
2022/05/25 07:15:34;;;;;;;5.55;2.90;;;15.40;87.20;;;;;;2049858;28;20043;-94
2022/05/25 07:16:55;;;;;;;4.50;2.72;;;15.40;87.20;;;;;;2040138;29;20031;-93
2022/05/25 07:18:13;;;;;;;4.70;2.60;;;15.50;87.10;;;;;;2044589;29;20031;-93
2022/05/25 07:19:33;;;;;;;5.82;2.70;;;15.60;87.00;;;;;;2052904;28;20035;-95
2022/05/25 07:20:52;;;;;;;4.50;2.60;;;15.70;86.90;;;;;;2049599;28;20035;-94
2022/05/25 07:22:12;;;;;;;6.05;2.92;;;15.80;86.60;;;;;;2058215;28;20066;-93
2022/05/25 07:23:32;;;;;;;4.03;2.47;;;15.90;86.30;;;;;;2050471;29;20091;-94
2022/05/25 07:24:52;;;;;;;5.28;2.70;;;15.90;86.00;;;;;;2048655;28;20039;-93
2022/05/25 07:26:13;;;;;;;4.97;2.70;;;15.90;85.80;;;;;;2046808;29;20051;-93